Time;durP1;ratioP1;P1;durP2;ratioP2;P2;SDS_P1;SDS_P2;PMS_P1;PMS_P2;Temp;Humidity;BMP_temperature;BMP_pressure;BME280_temperature;BME280_humidity;BME280_pressure;Samples;Min_cycle;Max_cycle;Signal;HPM_P1;HPM_P2
2023/12/06 00:00:55;;;;;;;8.40;1.65;;;;;;;;;;5070384;28;20419;-46
2023/12/06 00:03:22;;;;;;;11.25;2.17;;;;;;;;;;5070164;28;20475;-47
2023/12/06 00:05:49;;;;;;;9.77;1.88;;;;;;;;;;5070454;28;20446;-44
2023/12/06 00:08:16;;;;;;;9.07;1.75;;;;;;;;;;5070137;28;20479;-44
2023/12/06 00:10:43;;;;;;;8.00;1.90;;;;;;;;;;5057531;28;20453;-46
2023/12/06 00:13:10;;;;;;;8.35;1.80;;;;;;;;;;5062473;28;20397;-42
2023/12/06 00:15:37;;;;;;;10.38;1.73;;;;;;;;;;5068516;28;20396;-45
2023/12/06 00:18:04;;;;;;;15.02;2.00;;;;;;;;;;5064948;28;20480;-45
2023/12/06 00:20:31;;;;;;;9.77;1.70;;;;;;;;;;5063544;28;20798;-44
2023/12/06 00:22:58;;;;;;;9.70;1.83;;;;;;;;;;5065838;28;20916;-48
2023/12/06 00:25:25;;;;;;;9.83;1.80;;;;;;;;;;5056440;28;20415;-47
2023/12/06 00:27:52;;;;;;;15.65;1.80;;;;;;;;;;5052838;28;20409;-51
2023/12/06 00:30:20;;;;;;;16.38;1.88;;;;;;;;;;5059578;28;20887;-50
2023/12/06 00:32:47;;;;;;;15.55;1.67;;;;;;;;;;5067820;28;20776;-47
2023/12/06 00:35:14;;;;;;;14.10;2.22;;;;;;;;;;5062967;28;20421;-48
2023/12/06 00:37:41;;;;;;;12.25;2.05;;;;;;;;;;5057650;28;20755;-47
2023/12/06 00:40:08;;;;;;;11.82;2.35;;;;;;;;;;5068313;28;20439;-48
2023/12/06 00:42:38;;;;;;;10.05;2.50;;;;;;;;;;5062881;28;20485;-50
2023/12/06 00:45:05;;;;;;;17.80;3.17;;;;;;;;;;5060484;28;20869;-49
2023/12/06 00:47:32;;;;;;;21.13;3.40;;;;;;;;;;5068240;28;20406;-48
2023/12/06 00:49:59;;;;;;;18.25;3.08;;;;;;;;;;5069243;28;20400;-47
2023/12/06 00:52:26;;;;;;;19.50;4.90;;;;;;;;;;5062877;28;20403;-48
2023/12/06 00:54:53;;;;;;;20.73;5.20;;;;;;;;;;5060228;28;20399;-49
2023/12/06 00:57:20;;;;;;;20.08;5.43;;;;;;;;;;5054216;28;20449;-47
2023/12/06 00:59:47;;;;;;;21.53;5.17;;;;;;;;;;5058137;28;20816;-50
2023/12/06 01:02:14;;;;;;;19.38;5.05;;;;;;;;;;5068643;28;20408;-48
2023/12/06 01:04:41;;;;;;;20.42;6.20;;;;;;;;;;5069930;28;20403;-50
2023/12/06 01:07:08;;;;;;;23.23;6.40;;;;;;;;;;5069721;28;20434;-51
2023/12/06 01:09:35;;;;;;;22.88;6.20;;;;;;;;;;5069960;28;20410;-51
2023/12/06 01:12:02;;;;;;;21.25;6.25;;;;;;;;;;5069828;28;20489;-49
2023/12/06 01:14:30;;;;;;;19.90;6.45;;;;;;;;;;5069670;28;20396;-47
2023/12/06 01:16:58;;;;;;;21.80;5.67;;;;;;;;;;5067264;28;20461;-48
2023/12/06 01:19:25;;;;;;;20.90;5.37;;;;;;;;;;5057965;28;21098;-49
2023/12/06 01:21:52;;;;;;;19.85;5.50;;;;;;;;;;5067938;28;20423;-48
2023/12/06 01:24:19;;;;;;;19.95;5.72;;;;;;;;;;5057477;28;20412;-47
2023/12/06 01:26:46;;;;;;;21.58;5.85;;;;;;;;;;5061124;28;20461;-52
2023/12/06 01:29:13;;;;;;;15.85;5.40;;;;;;;;;;5066036;28;20429;-50
2023/12/06 01:31:40;;;;;;;20.88;5.55;;;;;;;;;;5068597;28;20761;-50
2023/12/06 01:34:07;;;;;;;15.38;5.07;;;;;;;;;;5069556;28;20391;-50
2023/12/06 01:36:37;;;;;;;16.30;5.43;;;;;;;;;;5069110;28;20392;-49
2023/12/06 01:39:04;;;;;;;16.98;5.07;;;;;;;;;;5066419;28;20781;-48
2023/12/06 01:41:32;;;;;;;15.23;4.93;;;;;;;;;;5076679;28;20428;-50
2023/12/06 01:43:58;;;;;;;15.05;5.05;;;;;;;;;;5074512;28;20423;-49
2023/12/06 01:46:25;;;;;;;19.40;4.70;;;;;;;;;;5075204;28;20406;-48
2023/12/06 01:48:53;;;;;;;18.23;4.80;;;;;;;;;;5082857;28;20764;-49
2023/12/06 01:51:22;;;;;;;18.40;4.75;;;;;;;;;;5072145;28;20875;-50
2023/12/06 01:53:49;;;;;;;20.50;5.20;;;;;;;;;;5068503;28;20391;-51
2023/12/06 01:56:17;;;;;;;19.63;4.65;;;;;;;;;;5080762;28;20458;-50
2023/12/06 01:58:44;;;;;;;17.05;4.90;;;;;;;;;;5083117;28;20405;-47
2023/12/06 02:01:12;;;;;;;14.65;4.13;;;;;;;;;;5092733;28;20417;-48
2023/12/06 02:03:39;;;;;;;16.30;4.72;;;;;;;;;;5096492;28;20394;-47
2023/12/06 02:06:07;;;;;;;17.70;4.43;;;;;;;;;;5092210;28;20867;-47
2023/12/06 02:08:36;;;;;;;11.77;3.88;;;;;;;;;;5091660;28;20421;-47
2023/12/06 02:11:06;;;;;;;15.82;4.20;;;;;;;;;;5096474;28;20378;-47
2023/12/06 02:13:33;;;;;;;14.05;3.90;;;;;;;;;;5094745;28;20429;-47
2023/12/06 02:16:01;;;;;;;17.00;4.00;;;;;;;;;;5093429;28;20394;-52
2023/12/06 02:18:29;;;;;;;16.63;3.95;;;;;;;;;;5094225;28;20389;-47
2023/12/06 02:20:57;;;;;;;13.10;4.22;;;;;;;;;;5094757;28;20458;-48
2023/12/06 02:23:26;;;;;;;13.35;3.92;;;;;;;;;;5095483;28;20849;-46
2023/12/06 02:25:53;;;;;;;14.70;4.07;;;;;;;;;;5094273;28;20398;-48
2023/12/06 02:28:20;;;;;;;15.23;3.97;;;;;;;;;;5074882;28;20497;-48
2023/12/06 02:30:47;;;;;;;13.68;3.80;;;;;;;;;;5092796;28;20406;-47
2023/12/06 02:33:14;;;;;;;12.52;3.78;;;;;;;;;;5091277;28;20422;-47
2023/12/06 02:35:46;;;;;;;13.95;3.65;;;;;;;;;;5090899;28;20434;-47
2023/12/06 02:38:14;;;;;;;10.13;3.33;;;;;;;;;;5089528;28;20415;-47
2023/12/06 02:40:42;;;;;;;8.90;3.05;;;;;;;;;;5094750;28;20456;-47
2023/12/06 02:43:09;;;;;;;15.45;3.78;;;;;;;;;;5094597;28;20474;-47
2023/12/06 02:45:36;;;;;;;9.67;3.33;;;;;;;;;;5096228;28;20390;-49
2023/12/06 02:48:06;;;;;;;10.88;3.50;;;;;;;;;;5090800;28;20398;-47
2023/12/06 02:50:33;;;;;;;8.50;2.83;;;;;;;;;;5094511;28;20409;-48
2023/12/06 02:53:00;;;;;;;9.57;3.00;;;;;;;;;;5084966;28;20906;-48
2023/12/06 02:55:27;;;;;;;9.38;2.90;;;;;;;;;;5105231;28;20398;-46
2023/12/06 02:57:54;;;;;;;10.82;2.92;;;;;;;;;;5091443;28;20535;-50
2023/12/06 03:00:21;;;;;;;9.70;2.87;;;;;;;;;;5091532;28;20422;-47
2023/12/06 03:02:48;;;;;;;8.50;2.78;;;;;;;;;;5088873;28;20751;-47
2023/12/06 03:05:15;;;;;;;7.20;2.75;;;;;;;;;;5091528;28;20441;-48
2023/12/06 03:07:43;;;;;;;8.52;2.70;;;;;;;;;;5091079;28;20443;-47
2023/12/06 03:10:10;;;;;;;10.20;3.03;;;;;;;;;;5091527;28;20394;-47
2023/12/06 03:12:37;;;;;;;9.38;2.63;;;;;;;;;;5073202;28;20763;-47
2023/12/06 03:15:04;;;;;;;7.43;2.38;;;;;;;;;;5091132;28;20405;-47
2023/12/06 03:17:31;;;;;;;7.95;2.40;;;;;;;;;;5090883;28;20394;-47
2023/12/06 03:19:58;;;;;;;8.13;2.50;;;;;;;;;;5090888;28;20410;-48
2023/12/06 03:22:25;;;;;;;7.72;2.42;;;;;;;;;;5093993;28;20796;-50
2023/12/06 03:24:52;;;;;;;6.87;2.40;;;;;;;;;;5084135;28;20403;-48
2023/12/06 03:27:19;;;;;;;7.93;2.50;;;;;;;;;;5101091;28;20398;-50
2023/12/06 03:29:46;;;;;;;7.07;2.22;;;;;;;;;;5100309;28;20399;-47
2023/12/06 03:32:13;;;;;;;6.60;1.97;;;;;;;;;;5097029;28;20425;-48
2023/12/06 03:34:40;;;;;;;8.60;2.42;;;;;;;;;;5099438;28;20509;-50
2023/12/06 03:37:08;;;;;;;7.88;2.40;;;;;;;;;;5101430;28;20397;-48
2023/12/06 03:39:35;;;;;;;7.35;2.28;;;;;;;;;;5102469;28;20431;-49
2023/12/06 03:42:02;;;;;;;8.05;2.22;;;;;;;;;;5111814;28;20453;-47
2023/12/06 03:44:28;;;;;;;7.13;2.30;;;;;;;;;;5111686;28;20864;-47
2023/12/06 03:46:55;;;;;;;6.22;2.10;;;;;;;;;;5111665;28;20406;-49
2023/12/06 03:49:22;;;;;;;6.53;2.15;;;;;;;;;;5111752;28;20372;-47
2023/12/06 03:51:49;;;;;;;9.73;2.22;;;;;;;;;;5111567;28;20388;-48
2023/12/06 03:54:17;;;;;;;5.97;2.05;;;;;;;;;;5111475;28;20792;-47
2023/12/06 03:56:45;;;;;;;6.05;1.88;;;;;;;;;;5111330;28;20387;-47
2023/12/06 03:59:11;;;;;;;6.88;1.85;;;;;;;;;;5111580;28;20391;-48
2023/12/06 04:01:43;;;;;;;6.00;1.80;;;;;;;;;;5111381;28;20419;-49
2023/12/06 04:04:12;;;;;;;5.23;1.83;;;;;;;;;;5111292;28;20471;-48
2023/12/06 04:06:39;;;;;;;8.10;1.98;;;;;;;;;;5110554;28;20738;-48
2023/12/06 04:09:07;;;;;;;5.72;2.00;;;;;;;;;;5111281;28;20738;-47
2023/12/06 04:11:34;;;;;;;5.90;1.88;;;;;;;;;;5111400;28;20381;-47
2023/12/06 04:14:01;;;;;;;5.10;2.03;;;;;;;;;;5111295;28;20870;-50
2023/12/06 04:16:29;;;;;;;6.00;1.83;;;;;;;;;;5111198;28;20377;-48
2023/12/06 04:18:55;;;;;;;4.38;1.67;;;;;;;;;;5111174;28;20399;-48
2023/12/06 04:21:23;;;;;;;5.65;1.60;;;;;;;;;;5111098;28;20911;-50
2023/12/06 04:23:50;;;;;;;5.83;2.00;;;;;;;;;;5111220;28;20893;-47
2023/12/06 04:26:16;;;;;;;7.20;1.77;;;;;;;;;;5111112;28;20834;-49
2023/12/06 04:28:43;;;;;;;5.18;1.58;;;;;;;;;;5111220;28;20399;-50
2023/12/06 04:31:10;;;;;;;4.93;1.85;;;;;;;;;;5111082;28;20888;-48
2023/12/06 04:33:37;;;;;;;4.28;1.45;;;;;;;;;;5111093;28;20893;-50
2023/12/06 04:36:05;;;;;;;5.30;1.63;;;;;;;;;;5095166;28;20412;-47
2023/12/06 04:38:32;;;;;;;5.45;1.67;;;;;;;;;;5090746;28;20386;-47
2023/12/06 04:40:59;;;;;;;6.33;1.67;;;;;;;;;;5090504;28;20418;-48
2023/12/06 04:43:26;;;;;;;5.30;1.50;;;;;;;;;;5090678;28;20378;-51
2023/12/06 04:45:53;;;;;;;4.35;1.48;;;;;;;;;;5090540;28;20916;-47
2023/12/06 04:48:21;;;;;;;5.07;1.57;;;;;;;;;;5090612;28;20409;-48
2023/12/06 04:50:48;;;;;;;4.70;1.60;;;;;;;;;;5090430;28;20386;-47
2023/12/06 04:53:15;;;;;;;3.97;1.55;;;;;;;;;;5090554;28;20435;-47
2023/12/06 04:55:42;;;;;;;4.57;1.40;;;;;;;;;;5090423;28;20409;-49
2023/12/06 04:58:09;;;;;;;5.22;1.60;;;;;;;;;;5090473;28;20396;-48
2023/12/06 05:00:36;;;;;;;3.20;1.50;;;;;;;;;;5072029;28;20882;-47
2023/12/06 05:03:03;;;;;;;3.63;1.30;;;;;;;;;;5090480;28;20822;-47
2023/12/06 05:05:30;;;;;;;6.00;1.60;;;;;;;;;;5090368;28;20467;-47
2023/12/06 05:07:57;;;;;;;5.15;1.55;;;;;;;;;;5072195;28;20393;-47
2023/12/06 05:10:24;;;;;;;3.60;1.33;;;;;;;;;;5090294;28;20382;-49
2023/12/06 05:12:51;;;;;;;3.45;1.40;;;;;;;;;;5090374;28;20377;-48
2023/12/06 05:15:18;;;;;;;3.33;1.23;;;;;;;;;;5090475;28;20370;-47
2023/12/06 05:17:45;;;;;;;3.92;1.27;;;;;;;;;;5092545;28;20890;-50
2023/12/06 05:20:12;;;;;;;4.85;1.67;;;;;;;;;;5094281;28;20895;-47
2023/12/06 05:22:39;;;;;;;4.10;1.40;;;;;;;;;;5094293;28;20405;-47
2023/12/06 05:25:06;;;;;;;5.28;1.40;;;;;;;;;;5094235;28;20382;-48
2023/12/06 05:27:33;;;;;;;4.57;1.20;;;;;;;;;;5094090;28;20411;-47
2023/12/06 05:30:00;;;;;;;3.83;1.30;;;;;;;;;;5094180;28;20382;-48
2023/12/06 05:32:27;;;;;;;4.75;1.40;;;;;;;;;;5094049;28;20386;-47
2023/12/06 05:34:54;;;;;;;3.45;1.20;;;;;;;;;;5094084;28;20374;-48
2023/12/06 05:37:21;;;;;;;3.47;1.27;;;;;;;;;;5093973;28;20382;-48
2023/12/06 05:39:48;;;;;;;4.18;1.40;;;;;;;;;;5093738;28;20888;-50
2023/12/06 05:42:16;;;;;;;3.47;1.27;;;;;;;;;;5093979;28;20390;-47
2023/12/06 05:44:43;;;;;;;2.63;1.20;;;;;;;;;;5093769;28;20895;-49
2023/12/06 05:47:10;;;;;;;3.25;1.20;;;;;;;;;;5093679;28;20382;-47
2023/12/06 05:49:37;;;;;;;3.53;1.10;;;;;;;;;;5093732;28;20377;-48
2023/12/06 05:52:04;;;;;;;2.90;1.13;;;;;;;;;;5093778;28;20386;-47
2023/12/06 05:54:31;;;;;;;2.90;1.17;;;;;;;;;;5093774;28;20468;-48
2023/12/06 05:56:58;;;;;;;3.72;1.10;;;;;;;;;;5093589;28;20374;-48
2023/12/06 05:59:25;;;;;;;3.33;1.20;;;;;;;;;;5075391;28;21029;-47
2023/12/06 06:01:52;;;;;;;3.47;1.20;;;;;;;;;;5091871;28;20414;-47
2023/12/06 06:04:19;;;;;;;4.47;1.35;;;;;;;;;;5093548;28;20378;-51
2023/12/06 06:06:46;;;;;;;3.17;1.17;;;;;;;;;;5093384;28;20393;-47
2023/12/06 06:09:13;;;;;;;3.13;1.13;;;;;;;;;;5093380;28;20524;-50
2023/12/06 06:11:40;;;;;;;3.78;1.00;;;;;;;;;;5093278;28;20397;-47
2023/12/06 06:14:07;;;;;;;3.40;1.02;;;;;;;;;;5093170;28;20394;-48
2023/12/06 06:16:34;;;;;;;2.22;1.00;;;;;;;;;;5093134;28;20401;-47
2023/12/06 06:19:02;;;;;;;2.60;1.10;;;;;;;;;;5093139;28;20382;-47
2023/12/06 06:21:29;;;;;;;4.22;0.90;;;;;;;;;;5092877;28;20919;-47
2023/12/06 06:23:56;;;;;;;3.15;0.90;;;;;;;;;;5093063;28;20374;-48
2023/12/06 06:26:23;;;;;;;2.33;0.90;;;;;;;;;;5092934;28;20745;-50
2023/12/06 06:28:50;;;;;;;2.78;1.05;;;;;;;;;;5092449;28;20370;-48
2023/12/06 06:31:17;;;;;;;2.20;0.85;;;;;;;;;;5093008;28;20366;-47
2023/12/06 06:33:44;;;;;;;3.80;1.05;;;;;;;;;;5093009;28;20377;-48
2023/12/06 06:36:11;;;;;;;2.97;1.08;;;;;;;;;;5092834;28;20376;-51
2023/12/06 06:38:38;;;;;;;2.90;1.10;;;;;;;;;;5092888;28;20378;-47
2023/12/06 06:41:05;;;;;;;2.40;0.97;;;;;;;;;;5092456;28;20452;-50
2023/12/06 06:43:32;;;;;;;3.45;0.90;;;;;;;;;;5092839;28;20379;-47
2023/12/06 06:45:59;;;;;;;1.80;0.80;;;;;;;;;;5092710;28;20373;-48
2023/12/06 06:48:26;;;;;;;2.35;0.85;;;;;;;;;;5092618;28;20805;-47
2023/12/06 06:50:53;;;;;;;2.35;0.80;;;;;;;;;;5092573;28;20389;-52
2023/12/06 06:53:20;;;;;;;3.97;1.00;;;;;;;;;;5092537;28;20412;-47
2023/12/06 06:55:47;;;;;;;2.53;0.95;;;;;;;;;;5092519;28;20370;-47
2023/12/06 06:58:14;;;;;;;2.83;0.90;;;;;;;;;;5092458;28;20374;-48
2023/12/06 07:00:41;;;;;;;2.20;0.85;;;;;;;;;;5092316;28;20900;-47
2023/12/06 07:03:08;;;;;;;2.42;0.90;;;;;;;;;;5092414;28;20394;-47
2023/12/06 07:05:35;;;;;;;3.33;1.05;;;;;;;;;;5092131;28;20835;-48
2023/12/06 07:08:02;;;;;;;2.13;0.90;;;;;;;;;;5092134;28;20385;-47
2023/12/06 07:10:29;;;;;;;3.08;1.00;;;;;;;;;;5092157;28;20404;-50
2023/12/06 07:12:56;;;;;;;2.88;0.98;;;;;;;;;;5092054;28;20418;-47
2023/12/06 07:15:24;;;;;;;2.38;0.90;;;;;;;;;;5091922;28;20370;-52
2023/12/06 07:17:51;;;;;;;2.50;0.85;;;;;;;;;;5092025;28;20374;-51
2023/12/06 07:20:18;;;;;;;2.17;0.80;;;;;;;;;;5091804;28;20485;-48
2023/12/06 07:22:45;;;;;;;1.98;0.75;;;;;;;;;;5091984;28;20366;-50
2023/12/06 07:25:15;;;;;;;3.53;1.00;;;;;;;;;;5091840;28;20401;-47
2023/12/06 07:27:46;;;;;;;2.20;0.90;;;;;;;;;;5092085;28;20451;-50
2023/12/06 07:30:15;;;;;;;3.13;0.90;;;;;;;;;;5091869;28;20382;-47
2023/12/06 07:32:42;;;;;;;2.47;0.98;;;;;;;;;;5091663;28;20366;-47
2023/12/06 07:35:09;;;;;;;2.20;0.90;;;;;;;;;;5091648;28;20374;-47
2023/12/06 07:37:36;;;;;;;1.83;0.80;;;;;;;;;;5091709;28;20421;-47
2023/12/06 07:40:09;;;;;;;2.10;0.80;;;;;;;;;;5090845;28;20414;-49
2023/12/06 07:42:36;;;;;;;2.22;0.80;;;;;;;;;;5091168;28;20398;-47
2023/12/06 07:45:03;;;;;;;3.47;0.90;;;;;;;;;;5091410;28;20370;-47
2023/12/06 07:47:30;;;;;;;2.75;0.93;;;;;;;;;;5091517;28;20736;-49
2023/12/06 07:49:57;;;;;;;2.15;0.82;;;;;;;;;;5073340;28;20958;-47
2023/12/06 07:52:24;;;;;;;2.75;0.80;;;;;;;;;;5091425;28;20423;-47
2023/12/06 07:54:51;;;;;;;3.05;0.90;;;;;;;;;;5091370;28;20427;-47
2023/12/06 07:57:18;;;;;;;2.35;0.80;;;;;;;;;;5091180;28;20431;-48
2023/12/06 07:59:47;;;;;;;1.92;0.90;;;;;;;;;;5091239;28;20775;-48
2023/12/06 08:02:14;;;;;;;3.28;0.90;;;;;;;;;;5091097;28;20947;-47
2023/12/06 08:04:42;;;;;;;1.77;0.70;;;;;;;;;;5091214;28;20911;-48
2023/12/06 08:07:08;;;;;;;1.83;0.88;;;;;;;;;;5090999;28;20439;-47
2023/12/06 08:09:36;;;;;;;1.77;0.80;;;;;;;;;;5091184;28;20493;-47
2023/12/06 08:12:03;;;;;;;2.17;0.90;;;;;;;;;;5091020;28;20509;-47
2023/12/06 08:14:30;;;;;;;1.88;0.70;;;;;;;;;;5091085;28;20382;-47
2023/12/06 08:16:57;;;;;;;4.18;0.77;;;;;;;;;;5090997;28;20735;-47
2023/12/06 08:19:24;;;;;;;2.28;0.80;;;;;;;;;;5090964;28;20413;-48
2023/12/06 08:21:51;;;;;;;3.60;1.00;;;;;;;;;;5090850;28;20425;-47
2023/12/06 08:24:18;;;;;;;2.08;0.70;;;;;;;;;;5090932;28;20384;-47
2023/12/06 08:26:45;;;;;;;1.90;0.70;;;;;;;;;;5090879;28;20440;-48
2023/12/06 08:29:12;;;;;;;2.45;0.80;;;;;;;;;;5090828;28;20469;-47
2023/12/06 08:31:39;;;;;;;2.30;0.83;;;;;;;;;;5090769;28;20747;-46
2023/12/06 08:34:06;;;;;;;1.35;0.77;;;;;;;;;;5090805;28;20382;-47
2023/12/06 08:36:33;;;;;;;1.50;0.70;;;;;;;;;;5090639;28;20374;-47
2023/12/06 08:39:00;;;;;;;1.88;0.73;;;;;;;;;;5090565;28;20385;-48
2023/12/06 08:41:27;;;;;;;2.15;0.90;;;;;;;;;;5090633;28;20414;-47
2023/12/06 08:43:54;;;;;;;1.70;0.60;;;;;;;;;;5090632;28;20382;-47
2023/12/06 08:46:22;;;;;;;1.30;0.60;;;;;;;;;;5090439;28;20792;-47
2023/12/06 08:48:49;;;;;;;1.75;0.60;;;;;;;;;;5090419;28;20386;-47
2023/12/06 08:51:16;;;;;;;2.47;0.70;;;;;;;;;;5090500;28;20434;-47
2023/12/06 08:53:43;;;;;;;1.40;0.70;;;;;;;;;;5090416;28;20871;-48
2023/12/06 08:56:10;;;;;;;2.13;0.82;;;;;;;;;;5090502;28;20378;-47
2023/12/06 08:58:37;;;;;;;1.92;0.68;;;;;;;;;;5090532;28;20448;-47
2023/12/06 09:01:04;;;;;;;1.40;0.67;;;;;;;;;;5090415;28;20942;-47
2023/12/06 09:03:31;;;;;;;1.50;0.70;;;;;;;;;;5090525;28;20461;-47
2023/12/06 09:05:58;;;;;;;1.73;0.90;;;;;;;;;;5090412;28;20855;-48
2023/12/06 09:08:26;;;;;;;1.80;0.70;;;;;;;;;;5090362;28;20385;-48
2023/12/06 09:10:53;;;;;;;1.05;0.50;;;;;;;;;;5090416;28;20382;-46
2023/12/06 09:13:20;;;;;;;1.20;0.52;;;;;;;;;;5090410;28;20867;-47
2023/12/06 09:15:47;;;;;;;1.02;0.60;;;;;;;;;;5072433;28;20797;-46
2023/12/06 09:18:14;;;;;;;1.23;0.60;;;;;;;;;;5090380;28;20427;-47
2023/12/06 09:20:42;;;;;;;0.95;0.50;;;;;;;;;;5090204;28;20463;-49
2023/12/06 09:23:09;;;;;;;1.50;0.60;;;;;;;;;;5090337;28;20416;-47
2023/12/06 09:25:36;;;;;;;1.27;0.50;;;;;;;;;;5090266;28;20380;-48
2023/12/06 09:28:04;;;;;;;1.10;0.40;;;;;;;;;;5090038;28;20388;-47
2023/12/06 09:30:31;;;;;;;1.08;0.50;;;;;;;;;;5090268;28;20455;-47
2023/12/06 09:32:58;;;;;;;1.83;0.50;;;;;;;;;;5089876;28;20398;-49
2023/12/06 09:35:25;;;;;;;1.42;0.60;;;;;;;;;;5089436;28;20501;-47
2023/12/06 09:37:53;;;;;;;2.00;0.50;;;;;;;;;;5089444;28;20424;-49
2023/12/06 09:40:20;;;;;;;1.80;0.70;;;;;;;;;;5089057;28;20840;-49
2023/12/06 09:42:49;;;;;;;1.10;0.60;;;;;;;;;;5089358;28;20895;-47
2023/12/06 09:45:17;;;;;;;1.35;0.60;;;;;;;;;;5089552;28;20929;-48
2023/12/06 09:47:46;;;;;;;1.63;0.47;;;;;;;;;;5089378;28;20398;-48
2023/12/06 09:50:13;;;;;;;1.42;0.57;;;;;;;;;;5089815;28;20386;-47
2023/12/06 09:52:40;;;;;;;2.10;0.50;;;;;;;;;;5089847;28;20382;-51
2023/12/06 09:55:08;;;;;;;1.75;0.80;;;;;;;;;;5071687;28;20776;-47
2023/12/06 09:57:34;;;;;;;1.92;0.60;;;;;;;;;;5090005;28;20398;-48
2023/12/06 10:00:02;;;;;;;3.77;0.93;;;;;;;;;;5089964;28;20381;-47
2023/12/06 10:02:29;;;;;;;3.50;0.70;;;;;;;;;;5090010;28;20481;-47
2023/12/06 10:04:58;;;;;;;1.58;0.63;;;;;;;;;;5092075;28;20443;-48
2023/12/06 10:07:33;;;;;;;2.57;0.50;;;;;;;;;;5093449;28;20903;-48
2023/12/06 10:10:01;;;;;;;2.97;0.73;;;;;;;;;;5093470;28;20410;-47
2023/12/06 10:12:28;;;;;;;2.88;0.57;;;;;;;;;;5093591;28;20385;-48
2023/12/06 10:15:01;;;;;;;1.50;0.55;;;;;;;;;;5093261;28;20418;-47
2023/12/06 10:17:29;;;;;;;2.63;0.73;;;;;;;;;;5093295;28;20374;-48
2023/12/06 10:19:56;;;;;;;3.37;0.90;;;;;;;;;;5093304;28;20949;-50
2023/12/06 10:22:25;;;;;;;2.67;0.70;;;;;;;;;;5093271;28;20455;-48
2023/12/06 10:24:55;;;;;;;3.40;0.77;;;;;;;;;;5092922;28;20744;-51
2023/12/06 10:27:24;;;;;;;2.88;0.70;;;;;;;;;;5093187;28;20510;-47
2023/12/06 10:29:52;;;;;;;3.38;0.90;;;;;;;;;;5093082;28;20390;-47
2023/12/06 10:32:20;;;;;;;2.22;0.73;;;;;;;;;;5083637;28;20865;-47
2023/12/06 10:34:47;;;;;;;2.42;0.80;;;;;;;;;;5092705;28;20386;-47
2023/12/06 10:37:18;;;;;;;1.52;0.70;;;;;;;;;;5092992;28;20771;-48
2023/12/06 10:39:49;;;;;;;3.70;0.73;;;;;;;;;;5092631;28;20414;-47
2023/12/06 10:42:17;;;;;;;3.10;0.85;;;;;;;;;;5083587;28;20408;-49
2023/12/06 10:44:44;;;;;;;4.72;0.90;;;;;;;;;;5085565;28;20405;-47
2023/12/06 10:47:13;;;;;;;4.05;0.98;;;;;;;;;;5092686;28;20433;-47
2023/12/06 10:49:40;;;;;;;1.98;0.68;;;;;;;;;;5092721;28;20498;-47
2023/12/06 10:52:07;;;;;;;3.38;0.90;;;;;;;;;;5092683;28;20397;-48
2023/12/06 10:54:34;;;;;;;1.60;0.68;;;;;;;;;;5091949;28;20748;-48
2023/12/06 10:57:03;;;;;;;2.75;0.80;;;;;;;;;;5101691;28;20399;-50
2023/12/06 10:59:34;;;;;;;2.88;0.70;;;;;;;;;;5101216;28;20419;-47
2023/12/06 11:02:02;;;;;;;2.38;0.73;;;;;;;;;;5102423;28;20424;-48
2023/12/06 11:04:31;;;;;;;3.90;0.80;;;;;;;;;;5102754;28;20496;-46
2023/12/06 11:07:17;;;;;;;2.22;0.70;;;;;;;;;;5080373;28;20524;-48
2023/12/06 11:09:47;;;;;;;3.47;0.70;;;;;;;;;;5092642;28;20529;-48
2023/12/06 11:12:38;;;;;;;4.72;0.90;;;;;;;;;;5098494;28;20390;-43
2023/12/06 11:15:23;;;;;;;5.72;0.90;;;;;;;;;;5104888;28;20519;-39
2023/12/06 11:17:53;;;;;;;3.67;1.00;;;;;;;;;;5076830;28;20398;-43
2023/12/06 11:20:20;;;;;;;3.67;1.10;;;;;;;;;;5099615;28;20414;-44
2023/12/06 11:22:47;;;;;;;2.95;0.73;;;;;;;;;;5100242;28;20400;-48
2023/12/06 11:25:14;;;;;;;2.00;0.70;;;;;;;;;;5111428;28;20384;-48
2023/12/06 11:27:42;;;;;;;4.25;0.80;;;;;;;;;;5091942;28;20897;-53
2023/12/06 11:30:10;;;;;;;2.67;0.60;;;;;;;;;;5111828;28;20399;-46
2023/12/06 11:32:44;;;;;;;3.20;0.80;;;;;;;;;;5111542;28;20904;-48
2023/12/06 11:35:11;;;;;;;1.55;0.60;;;;;;;;;;5111904;28;20368;-52
2023/12/06 11:37:38;;;;;;;2.47;0.77;;;;;;;;;;5109838;28;20544;-48
2023/12/06 11:40:23;;;;;;;2.50;0.70;;;;;;;;;;5111124;28;20408;-49
2023/12/06 11:42:57;;;;;;;1.92;0.70;;;;;;;;;;5111992;28;20383;-47
2023/12/06 11:45:28;;;;;;;2.08;0.70;;;;;;;;;;5111166;28;20434;-50
2023/12/06 11:47:55;;;;;;;3.95;0.70;;;;;;;;;;5109531;28;20890;-48
2023/12/06 11:50:26;;;;;;;1.83;0.60;;;;;;;;;;5111489;28;20384;-49
2023/12/06 11:52:54;;;;;;;2.70;0.70;;;;;;;;;;5111440;28;20786;-48
2023/12/06 11:55:21;;;;;;;2.47;0.52;;;;;;;;;;5110827;28;20462;-50
2023/12/06 11:58:07;;;;;;;3.17;0.70;;;;;;;;;;5111351;28;20824;-49
2023/12/06 12:00:37;;;;;;;2.30;0.60;;;;;;;;;;5101270;28;20421;-42
2023/12/06 12:03:04;;;;;;;3.28;0.80;;;;;;;;;;5097721;28;20485;-44
2023/12/06 12:05:34;;;;;;;2.17;0.60;;;;;;;;;;5092243;28;20867;-43
2023/12/06 12:08:02;;;;;;;2.97;0.80;;;;;;;;;;5091044;28;20385;-47
2023/12/06 12:10:29;;;;;;;3.23;0.70;;;;;;;;;;5089293;28;20794;-47
2023/12/06 12:12:57;;;;;;;2.00;0.70;;;;;;;;;;5090503;28;20934;-50
2023/12/06 12:15:27;;;;;;;3.60;0.63;;;;;;;;;;5090195;28;20401;-48
2023/12/06 12:17:54;;;;;;;2.10;0.60;;;;;;;;;;5090838;28;20401;-46
2023/12/06 12:20:21;;;;;;;2.22;0.60;;;;;;;;;;5096417;28;20481;-48
2023/12/06 12:22:48;;;;;;;2.92;0.52;;;;;;;;;;5111243;28;20381;-48
2023/12/06 12:25:16;;;;;;;1.70;0.60;;;;;;;;;;5110954;28;20372;-49
2023/12/06 12:27:47;;;;;;;1.80;0.60;;;;;;;;;;5110635;28;20373;-52
2023/12/06 12:30:14;;;;;;;1.15;0.50;;;;;;;;;;5107215;28;20381;-46
2023/12/06 12:32:49;;;;;;;2.45;0.50;;;;;;;;;;5090103;28;20386;-45
2023/12/06 12:35:16;;;;;;;1.45;0.60;;;;;;;;;;5093248;28;20394;-49
2023/12/06 12:37:44;;;;;;;1.70;0.60;;;;;;;;;;5111010;28;20786;-47
2023/12/06 12:40:11;;;;;;;1.42;0.43;;;;;;;;;;5103180;28;20492;-51
2023/12/06 12:42:42;;;;;;;2.38;0.50;;;;;;;;;;5100414;28;20964;-47
2023/12/06 12:45:10;;;;;;;1.70;0.50;;;;;;;;;;5090185;28;20402;-45
2023/12/06 12:47:38;;;;;;;2.00;0.60;;;;;;;;;;5095228;28;20393;-51
2023/12/06 12:50:06;;;;;;;1.30;0.63;;;;;;;;;;5108112;28;20475;-45
2023/12/06 12:52:34;;;;;;;2.13;0.57;;;;;;;;;;5099020;28;20489;-46
2023/12/06 12:55:05;;;;;;;2.05;0.60;;;;;;;;;;5104851;28;20392;-51
2023/12/06 12:57:41;;;;;;;1.93;0.63;;;;;;;;;;5089944;28;20482;-52
2023/12/06 13:00:19;;;;;;;2.22;0.68;;;;;;;;;;5089695;28;20404;-49
2023/12/06 13:02:47;;;;;;;5.82;0.70;;;;;;;;;;5069758;28;20934;-52
2023/12/06 13:05:14;;;;;;;3.80;0.60;;;;;;;;;;5089398;28;20405;-56
2023/12/06 13:07:41;;;;;;;4.78;0.80;;;;;;;;;;5089250;28;20925;-57
2023/12/06 13:10:10;;;;;;;4.70;0.80;;;;;;;;;;5089746;28;20405;-51
2023/12/06 13:12:41;;;;;;;3.17;0.68;;;;;;;;;;5089816;28;20948;-50
2023/12/06 13:15:08;;;;;;;3.53;0.88;;;;;;;;;;5088303;28;20958;-57
2023/12/06 13:17:36;;;;;;;3.43;0.77;;;;;;;;;;5090121;28;20386;-48
2023/12/06 13:20:03;;;;;;;3.22;0.70;;;;;;;;;;5089858;28;20389;-51
2023/12/06 13:22:30;;;;;;;4.70;0.80;;;;;;;;;;5089252;28;20416;-45
2023/12/06 13:24:57;;;;;;;3.15;0.70;;;;;;;;;;5097832;28;20449;-47
2023/12/06 13:27:24;;;;;;;4.28;0.90;;;;;;;;;;5088515;28;20385;-49
2023/12/06 13:29:51;;;;;;;5.13;0.82;;;;;;;;;;5071005;28;20543;-46
2023/12/06 13:32:18;;;;;;;5.57;0.80;;;;;;;;;;5095027;28;20729;-56
2023/12/06 13:34:47;;;;;;;5.78;0.80;;;;;;;;;;5077504;28;20729;-50
2023/12/06 13:37:15;;;;;;;6.20;0.90;;;;;;;;;;5087501;28;20462;-50
2023/12/06 13:39:45;;;;;;;2.65;0.70;;;;;;;;;;5090849;28;20424;-46
2023/12/06 13:42:15;;;;;;;4.15;0.80;;;;;;;;;;5092681;28;20812;-46
2023/12/06 13:44:42;;;;;;;3.03;0.80;;;;;;;;;;5092243;28;20707;-53
2023/12/06 13:47:10;;;;;;;4.55;0.90;;;;;;;;;;5092035;28;20432;-47
2023/12/06 13:49:37;;;;;;;5.53;0.80;;;;;;;;;;5089925;28;20397;-47
2023/12/06 13:52:04;;;;;;;3.58;0.73;;;;;;;;;;5103716;28;20392;-44
2023/12/06 13:54:34;;;;;;;2.35;0.80;;;;;;;;;;5093239;28;20447;-45
2023/12/06 13:57:01;;;;;;;5.00;0.80;;;;;;;;;;5090601;28;20422;-49
2023/12/06 13:59:28;;;;;;;4.35;0.93;;;;;;;;;;5095696;28;20499;-48
2023/12/06 14:01:55;;;;;;;3.90;0.90;;;;;;;;;;5112037;28;20408;-47
2023/12/06 14:04:22;;;;;;;5.88;0.80;;;;;;;;;;5103697;28;20394;-45
2023/12/06 14:06:49;;;;;;;4.32;0.85;;;;;;;;;;5094369;28;20424;-47
2023/12/06 14:09:17;;;;;;;6.38;0.88;;;;;;;;;;5096077;28;20496;-47
2023/12/06 14:11:44;;;;;;;4.93;0.80;;;;;;;;;;5092569;28;20386;-52
2023/12/06 14:14:11;;;;;;;4.43;0.80;;;;;;;;;;5092892;28;20406;-48
2023/12/06 14:16:47;;;;;;;4.50;0.70;;;;;;;;;;5092185;28;20451;-46
2023/12/06 14:19:14;;;;;;;7.35;0.90;;;;;;;;;;5073594;28;20413;-48
2023/12/06 14:21:41;;;;;;;2.83;0.70;;;;;;;;;;5092340;28;20914;-49
2023/12/06 14:24:08;;;;;;;4.13;0.63;;;;;;;;;;5092625;28;20632;-49
2023/12/06 14:26:36;;;;;;;3.65;0.80;;;;;;;;;;5092433;28;20759;-50
2023/12/06 14:29:03;;;;;;;2.33;0.55;;;;;;;;;;5071899;28;20903;-50
2023/12/06 14:31:30;;;;;;;7.60;0.80;;;;;;;;;;5092419;28;20390;-46
2023/12/06 14:33:57;;;;;;;4.95;0.60;;;;;;;;;;5088152;28;20390;-54
2023/12/06 14:36:24;;;;;;;6.32;0.82;;;;;;;;;;5090257;28;20402;-47
2023/12/06 14:38:51;;;;;;;7.03;0.70;;;;;;;;;;5088597;28;21189;-44
2023/12/06 14:41:24;;;;;;;3.53;0.70;;;;;;;;;;5090214;28;20479;-47
2023/12/06 14:43:51;;;;;;;4.43;0.80;;;;;;;;;;5090556;28;20802;-46